sensor_id;sensor_type;location;lat;lon;timestamp;P1;durP1;ratioP1;P2;durP2;ratioP2
83354;SDS011;75108;50.882;5.984;2024-01-06T00:01:21;28.67;;;12.87;;
83354;SDS011;75108;50.882;5.984;2024-01-06T00:03:46;33.30;;;12.47;;
83354;SDS011;75108;50.882;5.984;2024-01-06T00:06:12;30.87;;;12.07;;
83354;SDS011;75108;50.882;5.984;2024-01-06T00:08:38;29.45;;;12.38;;
83354;SDS011;75108;50.882;5.984;2024-01-06T00:11:04;35.35;;;14.57;;
83354;SDS011;75108;50.882;5.984;2024-01-06T00:13:29;32.90;;;13.47;;
83354;SDS011;75108;50.882;5.984;2024-01-06T00:15:55;41.07;;;14.80;;
83354;SDS011;75108;50.882;5.984;2024-01-06T00:18:20;33.67;;;13.37;;
83354;SDS011;75108;50.882;5.984;2024-01-06T00:20:46;36.85;;;14.30;;
83354;SDS011;75108;50.882;5.984;2024-01-06T00:23:11;37.00;;;14.03;;
83354;SDS011;75108;50.882;5.984;2024-01-06T00:25:36;34.80;;;14.73;;
83354;SDS011;75108;50.882;5.984;2024-01-06T00:28:02;37.27;;;13.70;;
83354;SDS011;75108;50.882;5.984;2024-01-06T00:30:28;35.03;;;14.50;;
83354;SDS011;75108;50.882;5.984;2024-01-06T00:32:53;37.00;;;14.73;;
83354;SDS011;75108;50.882;5.984;2024-01-06T00:35:18;37.47;;;14.73;;
83354;SDS011;75108;50.882;5.984;2024-01-06T00:37:44;41.10;;;14.23;;
83354;SDS011;75108;50.882;5.984;2024-01-06T00:40:09;37.20;;;14.70;;
83354;SDS011;75108;50.882;5.984;2024-01-06T00:42:35;35.60;;;13.43;;
83354;SDS011;75108;50.882;5.984;2024-01-06T00:45:01;37.07;;;14.43;;
83354;SDS011;75108;50.882;5.984;2024-01-06T00:47:26;38.77;;;14.77;;
83354;SDS011;75108;50.882;5.984;2024-01-06T00:49:52;38.93;;;14.27;;
83354;SDS011;75108;50.882;5.984;2024-01-06T00:52:17;38.87;;;15.23;;
83354;SDS011;75108;50.882;5.984;2024-01-06T00:54:42;39.67;;;15.23;;
83354;SDS011;75108;50.882;5.984;2024-01-06T00:57:08;40.27;;;14.63;;
83354;SDS011;75108;50.882;5.984;2024-01-06T00:59:33;34.93;;;13.90;;
83354;SDS011;75108;50.882;5.984;2024-01-06T01:01:58;39.37;;;13.73;;
83354;SDS011;75108;50.882;5.984;2024-01-06T01:04:24;36.30;;;14.13;;
83354;SDS011;75108;50.882;5.984;2024-01-06T01:06:49;42.60;;;14.73;;
83354;SDS011;75108;50.882;5.984;2024-01-06T01:09:15;36.57;;;13.63;;
83354;SDS011;75108;50.882;5.984;2024-01-06T01:11:40;47.23;;;16.40;;
83354;SDS011;75108;50.882;5.984;2024-01-06T01:14:06;43.33;;;15.98;;
83354;SDS011;75108;50.882;5.984;2024-01-06T01:16:32;42.10;;;16.27;;
83354;SDS011;75108;50.882;5.984;2024-01-06T01:18:57;37.87;;;14.70;;
83354;SDS011;75108;50.882;5.984;2024-01-06T01:21:23;41.28;;;16.15;;
83354;SDS011;75108;50.882;5.984;2024-01-06T01:23:49;43.67;;;16.42;;
83354;SDS011;75108;50.882;5.984;2024-01-06T01:26:14;45.30;;;16.47;;
83354;SDS011;75108;50.882;5.984;2024-01-06T01:28:40;42.53;;;16.03;;
83354;SDS011;75108;50.882;5.984;2024-01-06T01:31:05;39.80;;;14.17;;
83354;SDS011;75108;50.882;5.984;2024-01-06T01:33:31;38.00;;;14.65;;
83354;SDS011;75108;50.882;5.984;2024-01-06T01:35:56;37.33;;;15.53;;
83354;SDS011;75108;50.882;5.984;2024-01-06T01:38:22;38.00;;;15.43;;
83354;SDS011;75108;50.882;5.984;2024-01-06T01:40:47;37.53;;;14.88;;
83354;SDS011;75108;50.882;5.984;2024-01-06T01:43:16;36.80;;;14.17;;
83354;SDS011;75108;50.882;5.984;2024-01-06T01:45:52;38.17;;;15.35;;
83354;SDS011;75108;50.882;5.984;2024-01-06T01:48:19;35.90;;;13.67;;
83354;SDS011;75108;50.882;5.984;2024-01-06T01:50:45;32.38;;;13.80;;
83354;SDS011;75108;50.882;5.984;2024-01-06T01:53:11;36.42;;;13.73;;
83354;SDS011;75108;50.882;5.984;2024-01-06T01:55:37;36.65;;;13.45;;
83354;SDS011;75108;50.882;5.984;2024-01-06T01:58:04;33.08;;;12.52;;
83354;SDS011;75108;50.882;5.984;2024-01-06T02:00:31;29.03;;;10.90;;
83354;SDS011;75108;50.882;5.984;2024-01-06T02:02:56;29.45;;;11.70;;
83354;SDS011;75108;50.882;5.984;2024-01-06T02:05:23;26.70;;;10.57;;
83354;SDS011;75108;50.882;5.984;2024-01-06T02:07:49;26.75;;;10.98;;
83354;SDS011;75108;50.882;5.984;2024-01-06T02:10:16;25.53;;;11.00;;
83354;SDS011;75108;50.882;5.984;2024-01-06T02:12:42;24.23;;;10.60;;
83354;SDS011;75108;50.882;5.984;2024-01-06T02:15:08;31.00;;;11.88;;
83354;SDS011;75108;50.882;5.984;2024-01-06T02:17:33;28.03;;;11.40;;
83354;SDS011;75108;50.882;5.984;2024-01-06T02:19:59;30.83;;;11.70;;
83354;SDS011;75108;50.882;5.984;2024-01-06T02:22:24;30.42;;;12.15;;
83354;SDS011;75108;50.882;5.984;2024-01-06T02:24:49;29.33;;;11.73;;
83354;SDS011;75108;50.882;5.984;2024-01-06T02:27:15;26.00;;;11.07;;
83354;SDS011;75108;50.882;5.984;2024-01-06T02:29:40;27.20;;;11.60;;
83354;SDS011;75108;50.882;5.984;2024-01-06T02:32:06;25.70;;;9.77;;
83354;SDS011;75108;50.882;5.984;2024-01-06T02:34:31;28.53;;;10.13;;
83354;SDS011;75108;50.882;5.984;2024-01-06T02:36:57;26.20;;;10.40;;
83354;SDS011;75108;50.882;5.984;2024-01-06T02:39:23;25.08;;;9.43;;
83354;SDS011;75108;50.882;5.984;2024-01-06T02:41:49;26.73;;;9.63;;
83354;SDS011;75108;50.882;5.984;2024-01-06T02:44:14;26.00;;;9.75;;
83354;SDS011;75108;50.882;5.984;2024-01-06T02:46:40;25.50;;;10.07;;
83354;SDS011;75108;50.882;5.984;2024-01-06T02:49:05;21.60;;;8.63;;
83354;SDS011;75108;50.882;5.984;2024-01-06T02:51:32;24.55;;;9.13;;
83354;SDS011;75108;50.882;5.984;2024-01-06T02:53:57;24.03;;;9.27;;
83354;SDS011;75108;50.882;5.984;2024-01-06T02:56:23;29.95;;;10.10;;
83354;SDS011;75108;50.882;5.984;2024-01-06T02:58:48;31.70;;;10.33;;
83354;SDS011;75108;50.882;5.984;2024-01-06T03:01:13;26.27;;;10.13;;
83354;SDS011;75108;50.882;5.984;2024-01-06T03:03:39;29.53;;;10.20;;
83354;SDS011;75108;50.882;5.984;2024-01-06T03:06:04;26.00;;;9.48;;
83354;SDS011;75108;50.882;5.984;2024-01-06T03:08:30;24.60;;;9.73;;
83354;SDS011;75108;50.882;5.984;2024-01-06T03:10:56;23.77;;;9.77;;
83354;SDS011;75108;50.882;5.984;2024-01-06T03:13:21;23.27;;;9.40;;
83354;SDS011;75108;50.882;5.984;2024-01-06T03:15:47;23.93;;;9.30;;
83354;SDS011;75108;50.882;5.984;2024-01-06T03:18:12;23.80;;;8.87;;
83354;SDS011;75108;50.882;5.984;2024-01-06T03:20:38;22.27;;;8.20;;
83354;SDS011;75108;50.882;5.984;2024-01-06T03:23:03;21.50;;;9.00;;
83354;SDS011;75108;50.882;5.984;2024-01-06T03:25:28;18.87;;;7.00;;
83354;SDS011;75108;50.882;5.984;2024-01-06T03:27:54;21.63;;;8.27;;
83354;SDS011;75108;50.882;5.984;2024-01-06T03:30:19;17.63;;;7.57;;
83354;SDS011;75108;50.882;5.984;2024-01-06T03:32:45;19.07;;;6.93;;
83354;SDS011;75108;50.882;5.984;2024-01-06T03:35:10;18.20;;;7.93;;
83354;SDS011;75108;50.882;5.984;2024-01-06T03:37:36;20.77;;;7.50;;
83354;SDS011;75108;50.882;5.984;2024-01-06T03:40:01;22.27;;;8.13;;
83354;SDS011;75108;50.882;5.984;2024-01-06T03:42:27;22.90;;;8.60;;
83354;SDS011;75108;50.882;5.984;2024-01-06T03:44:53;24.25;;;9.43;;
83354;SDS011;75108;50.882;5.984;2024-01-06T03:47:18;26.47;;;9.87;;
83354;SDS011;75108;50.882;5.984;2024-01-06T03:49:44;27.40;;;9.67;;
83354;SDS011;75108;50.882;5.984;2024-01-06T03:52:10;28.00;;;9.13;;
83354;SDS011;75108;50.882;5.984;2024-01-06T03:54:35;27.15;;;9.75;;
83354;SDS011;75108;50.882;5.984;2024-01-06T03:57:01;26.13;;;9.38;;
83354;SDS011;75108;50.882;5.984;2024-01-06T03:59:26;29.33;;;10.50;;
83354;SDS011;75108;50.882;5.984;2024-01-06T04:01:52;26.87;;;9.93;;
83354;SDS011;75108;50.882;5.984;2024-01-06T04:04:17;31.40;;;11.07;;
83354;SDS011;75108;50.882;5.984;2024-01-06T04:06:43;29.97;;;10.33;;
83354;SDS011;75108;50.882;5.984;2024-01-06T04:09:08;24.70;;;9.65;;
83354;SDS011;75108;50.882;5.984;2024-01-06T04:11:34;27.20;;;9.60;;
83354;SDS011;75108;50.882;5.984;2024-01-06T04:13:59;28.83;;;10.20;;
83354;SDS011;75108;50.882;5.984;2024-01-06T04:16:25;28.47;;;9.53;;
83354;SDS011;75108;50.882;5.984;2024-01-06T04:18:52;29.15;;;10.73;;
83354;SDS011;75108;50.882;5.984;2024-01-06T04:21:17;29.00;;;10.67;;
83354;SDS011;75108;50.882;5.984;2024-01-06T04:23:43;28.87;;;9.97;;
83354;SDS011;75108;50.882;5.984;2024-01-06T04:26:08;26.87;;;10.10;;
83354;SDS011;75108;50.882;5.984;2024-01-06T04:28:34;25.42;;;8.68;;
83354;SDS011;75108;50.882;5.984;2024-01-06T04:31:00;26.10;;;10.17;;
83354;SDS011;75108;50.882;5.984;2024-01-06T04:33:25;25.63;;;9.43;;
83354;SDS011;75108;50.882;5.984;2024-01-06T04:35:50;28.50;;;9.82;;
83354;SDS011;75108;50.882;5.984;2024-01-06T04:38:16;26.50;;;9.70;;
83354;SDS011;75108;50.882;5.984;2024-01-06T04:40:41;28.17;;;9.67;;
83354;SDS011;75108;50.882;5.984;2024-01-06T04:43:08;26.58;;;9.65;;
83354;SDS011;75108;50.882;5.984;2024-01-06T04:45:33;27.60;;;10.10;;
83354;SDS011;75108;50.882;5.984;2024-01-06T04:47:59;27.25;;;9.63;;
83354;SDS011;75108;50.882;5.984;2024-01-06T04:50:25;22.27;;;8.13;;
83354;SDS011;75108;50.882;5.984;2024-01-06T04:52:50;23.77;;;9.05;;
83354;SDS011;75108;50.882;5.984;2024-01-06T04:55:16;23.40;;;7.73;;
83354;SDS011;75108;50.882;5.984;2024-01-06T04:57:41;22.17;;;8.23;;
83354;SDS011;75108;50.882;5.984;2024-01-06T05:00:07;26.53;;;8.87;;
83354;SDS011;75108;50.882;5.984;2024-01-06T05:02:32;22.53;;;9.23;;
83354;SDS011;75108;50.882;5.984;2024-01-06T05:04:58;25.58;;;9.02;;
83354;SDS011;75108;50.882;5.984;2024-01-06T05:07:23;25.27;;;9.67;;
83354;SDS011;75108;50.882;5.984;2024-01-06T05:09:49;25.80;;;9.23;;
83354;SDS011;75108;50.882;5.984;2024-01-06T05:12:14;27.13;;;9.50;;
83354;SDS011;75108;50.882;5.984;2024-01-06T05:14:40;24.50;;;9.45;;
83354;SDS011;75108;50.882;5.984;2024-01-06T05:17:05;25.20;;;9.40;;
83354;SDS011;75108;50.882;5.984;2024-01-06T05:19:31;21.53;;;7.90;;
83354;SDS011;75108;50.882;5.984;2024-01-06T05:21:57;24.73;;;8.27;;
83354;SDS011;75108;50.882;5.984;2024-01-06T05:24:23;25.63;;;8.93;;
83354;SDS011;75108;50.882;5.984;2024-01-06T05:26:48;27.40;;;8.77;;
83354;SDS011;75108;50.882;5.984;2024-01-06T05:29:13;24.83;;;9.53;;
83354;SDS011;75108;50.882;5.984;2024-01-06T05:31:39;25.23;;;8.37;;
83354;SDS011;75108;50.882;5.984;2024-01-06T05:34:04;29.93;;;9.40;;
83354;SDS011;75108;50.882;5.984;2024-01-06T05:36:29;27.35;;;9.55;;
83354;SDS011;75108;50.882;5.984;2024-01-06T05:38:55;27.13;;;9.33;;
83354;SDS011;75108;50.882;5.984;2024-01-06T05:41:21;27.37;;;10.00;;
83354;SDS011;75108;50.882;5.984;2024-01-06T05:43:46;25.23;;;10.20;;
83354;SDS011;75108;50.882;5.984;2024-01-06T05:46:11;24.73;;;10.00;;
83354;SDS011;75108;50.882;5.984;2024-01-06T05:48:37;29.77;;;10.63;;
83354;SDS011;75108;50.882;5.984;2024-01-06T05:51:05;29.10;;;10.53;;
83354;SDS011;75108;50.882;5.984;2024-01-06T05:53:31;29.50;;;10.32;;
83354;SDS011;75108;50.882;5.984;2024-01-06T05:55:56;31.10;;;11.17;;
83354;SDS011;75108;50.882;5.984;2024-01-06T05:58:22;29.45;;;11.15;;
83354;SDS011;75108;50.882;5.984;2024-01-06T06:00:47;30.93;;;10.93;;
83354;SDS011;75108;50.882;5.984;2024-01-06T06:03:13;24.50;;;9.40;;
83354;SDS011;75108;50.882;5.984;2024-01-06T06:05:38;31.58;;;11.30;;
83354;SDS011;75108;50.882;5.984;2024-01-06T06:08:04;31.00;;;11.00;;
83354;SDS011;75108;50.882;5.984;2024-01-06T06:10:30;29.90;;;11.23;;
83354;SDS011;75108;50.882;5.984;2024-01-06T06:13:06;29.77;;;10.75;;
83354;SDS011;75108;50.882;5.984;2024-01-06T06:15:32;27.23;;;10.23;;
83354;SDS011;75108;50.882;5.984;2024-01-06T06:17:57;26.83;;;9.43;;
83354;SDS011;75108;50.882;5.984;2024-01-06T06:20:25;29.25;;;10.05;;
83354;SDS011;75108;50.882;5.984;2024-01-06T06:22:50;25.53;;;9.37;;
83354;SDS011;75108;50.882;5.984;2024-01-06T06:25:16;29.03;;;10.90;;
83354;SDS011;75108;50.882;5.984;2024-01-06T06:27:41;27.70;;;10.05;;
83354;SDS011;75108;50.882;5.984;2024-01-06T06:30:07;29.27;;;10.00;;
83354;SDS011;75108;50.882;5.984;2024-01-06T06:32:33;24.00;;;9.57;;
83354;SDS011;75108;50.882;5.984;2024-01-06T06:34:58;24.77;;;9.40;;
83354;SDS011;75108;50.882;5.984;2024-01-06T06:37:24;24.23;;;9.47;;
83354;SDS011;75108;50.882;5.984;2024-01-06T06:39:49;29.13;;;9.23;;
83354;SDS011;75108;50.882;5.984;2024-01-06T06:42:14;16.30;;;7.57;;
83354;SDS011;75108;50.882;5.984;2024-01-06T06:44:40;28.60;;;10.38;;
83354;SDS011;75108;50.882;5.984;2024-01-06T06:47:05;26.20;;;9.50;;
83354;SDS011;75108;50.882;5.984;2024-01-06T06:49:31;31.33;;;9.70;;
83354;SDS011;75108;50.882;5.984;2024-01-06T06:51:56;26.90;;;9.60;;
83354;SDS011;75108;50.882;5.984;2024-01-06T06:54:22;30.87;;;9.43;;
83354;SDS011;75108;50.882;5.984;2024-01-06T06:56:47;30.37;;;9.63;;
83354;SDS011;75108;50.882;5.984;2024-01-06T06:59:12;24.63;;;9.23;;
83354;SDS011;75108;50.882;5.984;2024-01-06T07:01:38;27.37;;;10.00;;
83354;SDS011;75108;50.882;5.984;2024-01-06T07:04:03;30.87;;;10.33;;
83354;SDS011;75108;50.882;5.984;2024-01-06T07:06:29;28.10;;;9.80;;
83354;SDS011;75108;50.882;5.984;2024-01-06T07:08:55;28.63;;;10.05;;
83354;SDS011;75108;50.882;5.984;2024-01-06T07:11:21;32.60;;;11.30;;
83354;SDS011;75108;50.882;5.984;2024-01-06T07:13:46;30.67;;;10.67;;
83354;SDS011;75108;50.882;5.984;2024-01-06T07:16:12;37.78;;;11.40;;
83354;SDS011;75108;50.882;5.984;2024-01-06T07:18:37;36.97;;;11.30;;
83354;SDS011;75108;50.882;5.984;2024-01-06T07:21:06;35.67;;;11.97;;
83354;SDS011;75108;50.882;5.984;2024-01-06T07:23:32;25.45;;;9.95;;
83354;SDS011;75108;50.882;5.984;2024-01-06T07:25:57;29.10;;;10.15;;
83354;SDS011;75108;50.882;5.984;2024-01-06T07:28:23;32.25;;;10.98;;
83354;SDS011;75108;50.882;5.984;2024-01-06T07:30:49;28.17;;;9.60;;
83354;SDS011;75108;50.882;5.984;2024-01-06T07:33:14;28.40;;;9.57;;
83354;SDS011;75108;50.882;5.984;2024-01-06T07:35:40;30.80;;;11.17;;
83354;SDS011;75108;50.882;5.984;2024-01-06T07:38:11;18.85;;;6.88;;
83354;SDS011;75108;50.882;5.984;2024-01-06T07:40:39;23.88;;;8.88;;
83354;SDS011;75108;50.882;5.984;2024-01-06T07:43:04;27.23;;;9.88;;
83354;SDS011;75108;50.882;5.984;2024-01-06T07:45:30;27.30;;;9.60;;
83354;SDS011;75108;50.882;5.984;2024-01-06T07:47:57;26.88;;;9.40;;
83354;SDS011;75108;50.882;5.984;2024-01-06T07:50:22;23.60;;;8.80;;
83354;SDS011;75108;50.882;5.984;2024-01-06T07:52:48;25.63;;;9.80;;
83354;SDS011;75108;50.882;5.984;2024-01-06T07:55:13;25.00;;;9.80;;
83354;SDS011;75108;50.882;5.984;2024-01-06T07:57:39;21.43;;;8.13;;
83354;SDS011;75108;50.882;5.984;2024-01-06T08:00:04;25.00;;;8.82;;
83354;SDS011;75108;50.882;5.984;2024-01-06T08:02:30;23.25;;;8.15;;
83354;SDS011;75108;50.882;5.984;2024-01-06T08:04:56;23.67;;;8.67;;
83354;SDS011;75108;50.882;5.984;2024-01-06T08:07:22;25.93;;;8.73;;
83354;SDS011;75108;50.882;5.984;2024-01-06T08:09:47;23.15;;;8.48;;
83354;SDS011;75108;50.882;5.984;2024-01-06T08:12:13;23.67;;;8.40;;
83354;SDS011;75108;50.882;5.984;2024-01-06T08:14:39;21.17;;;8.25;;
83354;SDS011;75108;50.882;5.984;2024-01-06T08:17:05;21.00;;;7.50;;
83354;SDS011;75108;50.882;5.984;2024-01-06T08:19:30;20.43;;;8.07;;
83354;SDS011;75108;50.882;5.984;2024-01-06T08:21:58;22.73;;;8.73;;
83354;SDS011;75108;50.882;5.984;2024-01-06T08:24:23;19.58;;;7.50;;
83354;SDS011;75108;50.882;5.984;2024-01-06T08:26:49;19.50;;;7.67;;
83354;SDS011;75108;50.882;5.984;2024-01-06T08:29:15;21.38;;;7.63;;
83354;SDS011;75108;50.882;5.984;2024-01-06T08:31:42;15.40;;;5.55;;
83354;SDS011;75108;50.882;5.984;2024-01-06T08:34:08;17.53;;;7.17;;
83354;SDS011;75108;50.882;5.984;2024-01-06T08:36:34;15.35;;;7.32;;
83354;SDS011;75108;50.882;5.984;2024-01-06T08:38:59;17.48;;;7.18;;
83354;SDS011;75108;50.882;5.984;2024-01-06T08:41:25;17.47;;;7.03;;
83354;SDS011;75108;50.882;5.984;2024-01-06T08:43:51;13.40;;;5.53;;
83354;SDS011;75108;50.882;5.984;2024-01-06T08:46:16;19.07;;;7.00;;
83354;SDS011;75108;50.882;5.984;2024-01-06T08:48:42;16.00;;;6.37;;
83354;SDS011;75108;50.882;5.984;2024-01-06T08:51:08;16.55;;;6.72;;
83354;SDS011;75108;50.882;5.984;2024-01-06T08:53:33;16.77;;;7.10;;
83354;SDS011;75108;50.882;5.984;2024-01-06T08:55:59;14.60;;;6.03;;
83354;SDS011;75108;50.882;5.984;2024-01-06T08:58:24;14.77;;;5.53;;
83354;SDS011;75108;50.882;5.984;2024-01-06T09:00:50;13.27;;;5.50;;
83354;SDS011;75108;50.882;5.984;2024-01-06T09:03:16;11.90;;;4.95;;
83354;SDS011;75108;50.882;5.984;2024-01-06T09:05:42;13.33;;;5.37;;
83354;SDS011;75108;50.882;5.984;2024-01-06T09:08:07;12.85;;;5.30;;
83354;SDS011;75108;50.882;5.984;2024-01-06T09:10:32;13.87;;;5.57;;
83354;SDS011;75108;50.882;5.984;2024-01-06T09:12:58;16.93;;;6.30;;
83354;SDS011;75108;50.882;5.984;2024-01-06T09:15:23;17.13;;;6.43;;
83354;SDS011;75108;50.882;5.984;2024-01-06T09:17:49;18.05;;;6.47;;
83354;SDS011;75108;50.882;5.984;2024-01-06T09:20:14;15.77;;;6.43;;
83354;SDS011;75108;50.882;5.984;2024-01-06T09:22:40;14.10;;;5.53;;
83354;SDS011;75108;50.882;5.984;2024-01-06T09:25:05;15.37;;;6.73;;
83354;SDS011;75108;50.882;5.984;2024-01-06T09:27:31;16.20;;;6.35;;
83354;SDS011;75108;50.882;5.984;2024-01-06T09:29:57;15.73;;;7.05;;
83354;SDS011;75108;50.882;5.984;2024-01-06T09:32:23;17.50;;;6.87;;
83354;SDS011;75108;50.882;5.984;2024-01-06T09:34:49;17.33;;;7.28;;
83354;SDS011;75108;50.882;5.984;2024-01-06T09:37:14;14.40;;;5.40;;
83354;SDS011;75108;50.882;5.984;2024-01-06T09:39:40;16.03;;;6.40;;
83354;SDS011;75108;50.882;5.984;2024-01-06T09:42:05;16.23;;;6.10;;
83354;SDS011;75108;50.882;5.984;2024-01-06T09:44:31;13.10;;;5.33;;
83354;SDS011;75108;50.882;5.984;2024-01-06T09:46:58;15.75;;;6.00;;
83354;SDS011;75108;50.882;5.984;2024-01-06T09:49:25;14.30;;;6.90;;
83354;SDS011;75108;50.882;5.984;2024-01-06T09:51:53;15.15;;;6.60;;
83354;SDS011;75108;50.882;5.984;2024-01-06T09:54:24;12.48;;;5.80;;
83354;SDS011;75108;50.882;5.984;2024-01-06T09:56:58;11.97;;;5.30;;
83354;SDS011;75108;50.882;5.984;2024-01-06T09:59:25;14.50;;;5.60;;
83354;SDS011;75108;50.882;5.984;2024-01-06T10:01:51;12.88;;;5.57;;
83354;SDS011;75108;50.882;5.984;2024-01-06T10:04:18;13.70;;;6.10;;
83354;SDS011;75108;50.882;5.984;2024-01-06T10:06:43;15.93;;;6.50;;
83354;SDS011;75108;50.882;5.984;2024-01-06T10:09:09;16.45;;;6.43;;
83354;SDS011;75108;50.882;5.984;2024-01-06T10:11:36;13.77;;;6.18;;
83354;SDS011;75108;50.882;5.984;2024-01-06T10:14:03;14.20;;;5.83;;
83354;SDS011;75108;50.882;5.984;2024-01-06T10:16:28;12.15;;;5.38;;
83354;SDS011;75108;50.882;5.984;2024-01-06T10:18:54;13.47;;;5.77;;
83354;SDS011;75108;50.882;5.984;2024-01-06T10:21:20;14.57;;;6.40;;
83354;SDS011;75108;50.882;5.984;2024-01-06T10:23:47;12.90;;;5.63;;
83354;SDS011;75108;50.882;5.984;2024-01-06T10:26:13;10.70;;;4.45;;
83354;SDS011;75108;50.882;5.984;2024-01-06T10:28:39;10.53;;;4.50;;
83354;SDS011;75108;50.882;5.984;2024-01-06T10:31:07;10.47;;;4.57;;
83354;SDS011;75108;50.882;5.984;2024-01-06T10:33:33;13.00;;;5.28;;
83354;SDS011;75108;50.882;5.984;2024-01-06T10:35:59;13.47;;;5.07;;
83354;SDS011;75108;50.882;5.984;2024-01-06T10:38:25;11.20;;;4.70;;
83354;SDS011;75108;50.882;5.984;2024-01-06T10:40:58;11.70;;;4.65;;
83354;SDS011;75108;50.882;5.984;2024-01-06T10:43:25;12.13;;;4.25;;
83354;SDS011;75108;50.882;5.984;2024-01-06T10:45:53;14.15;;;5.32;;
83354;SDS011;75108;50.882;5.984;2024-01-06T10:48:21;13.87;;;5.80;;
83354;SDS011;75108;50.882;5.984;2024-01-06T10:50:48;12.48;;;5.50;;
83354;SDS011;75108;50.882;5.984;2024-01-06T10:53:14;14.30;;;5.95;;
83354;SDS011;75108;50.882;5.984;2024-01-06T10:55:42;13.83;;;5.87;;
83354;SDS011;75108;50.882;5.984;2024-01-06T10:58:08;13.65;;;5.82;;
83354;SDS011;75108;50.882;5.984;2024-01-06T11:00:35;15.25;;;6.15;;
83354;SDS011;75108;50.882;5.984;2024-01-06T11:03:01;12.97;;;5.83;;
83354;SDS011;75108;50.882;5.984;2024-01-06T11:05:29;14.23;;;6.03;;
83354;SDS011;75108;50.882;5.984;2024-01-06T11:07:57;12.10;;;5.32;;
83354;SDS011;75108;50.882;5.984;2024-01-06T11:10:26;14.73;;;6.35;;
83354;SDS011;75108;50.882;5.984;2024-01-06T11:13:14;13.53;;;5.60;;
83354;SDS011;75108;50.882;5.984;2024-01-06T11:15:49;14.50;;;5.95;;
83354;SDS011;75108;50.882;5.984;2024-01-06T11:18:35;13.45;;;5.35;;
83354;SDS011;75108;50.882;5.984;2024-01-06T11:26:31;13.83;;;5.97;;
83354;SDS011;75108;50.882;5.984;2024-01-06T11:28:57;14.80;;;6.05;;
83354;SDS011;75108;50.882;5.984;2024-01-06T11:31:28;12.25;;;5.68;;
83354;SDS011;75108;50.882;5.984;2024-01-06T11:33:55;13.63;;;5.50;;
83354;SDS011;75108;50.882;5.984;2024-01-06T11:36:21;13.75;;;5.90;;
83354;SDS011;75108;50.882;5.984;2024-01-06T11:38:47;13.38;;;5.68;;
83354;SDS011;75108;50.882;5.984;2024-01-06T11:41:58;12.93;;;5.77;;
83354;SDS011;75108;50.882;5.984;2024-01-06T11:44:22;13.07;;;5.68;;
83354;SDS011;75108;50.882;5.984;2024-01-06T11:46:48;14.82;;;6.43;;
83354;SDS011;75108;50.882;5.984;2024-01-06T11:49:15;13.93;;;6.15;;
83354;SDS011;75108;50.882;5.984;2024-01-06T11:51:41;11.60;;;4.50;;
83354;SDS011;75108;50.882;5.984;2024-01-06T11:54:07;11.83;;;5.10;;
83354;SDS011;75108;50.882;5.984;2024-01-06T11:56:34;13.63;;;5.50;;
83354;SDS011;75108;50.882;5.984;2024-01-06T11:59:00;14.03;;;4.77;;
83354;SDS011;75108;50.882;5.984;2024-01-06T12:01:25;14.17;;;5.00;;
83354;SDS011;75108;50.882;5.984;2024-01-06T12:03:54;13.20;;;5.00;;
83354;SDS011;75108;50.882;5.984;2024-01-06T12:06:20;14.68;;;5.70;;
83354;SDS011;75108;50.882;5.984;2024-01-06T12:08:48;13.13;;;5.53;;
83354;SDS011;75108;50.882;5.984;2024-01-06T12:11:16;16.40;;;5.88;;
83354;SDS011;75108;50.882;5.984;2024-01-06T12:13:43;12.60;;;4.53;;
83354;SDS011;75108;50.882;5.984;2024-01-06T12:16:09;13.77;;;4.78;;
83354;SDS011;75108;50.882;5.984;2024-01-06T12:18:35;13.02;;;5.60;;
83354;SDS011;75108;50.882;5.984;2024-01-06T12:21:01;12.10;;;4.83;;
83354;SDS011;75108;50.882;5.984;2024-01-06T12:23:27;11.05;;;4.93;;
83354;SDS011;75108;50.882;5.984;2024-01-06T12:25:53;15.27;;;6.13;;
83354;SDS011;75108;50.882;5.984;2024-01-06T12:28:19;16.33;;;6.23;;
83354;SDS011;75108;50.882;5.984;2024-01-06T12:30:44;14.68;;;5.60;;
83354;SDS011;75108;50.882;5.984;2024-01-06T12:33:11;17.40;;;6.67;;
83354;SDS011;75108;50.882;5.984;2024-01-06T12:35:37;20.35;;;6.97;;
83354;SDS011;75108;50.882;5.984;2024-01-06T12:38:03;21.13;;;7.17;;
83354;SDS011;75108;50.882;5.984;2024-01-06T12:40:35;20.20;;;7.60;;
83354;SDS011;75108;50.882;5.984;2024-01-06T12:43:04;18.58;;;6.35;;
83354;SDS011;75108;50.882;5.984;2024-01-06T12:45:30;15.35;;;6.13;;
83354;SDS011;75108;50.882;5.984;2024-01-06T12:47:56;19.60;;;7.03;;
83354;SDS011;75108;50.882;5.984;2024-01-06T12:50:21;20.27;;;7.40;;
83354;SDS011;75108;50.882;5.984;2024-01-06T12:52:46;23.33;;;8.03;;
83354;SDS011;75108;50.882;5.984;2024-01-06T12:55:12;22.70;;;7.75;;
83354;SDS011;75108;50.882;5.984;2024-01-06T12:57:37;24.30;;;7.90;;
83354;SDS011;75108;50.882;5.984;2024-01-06T13:00:03;21.37;;;6.13;;
83354;SDS011;75108;50.882;5.984;2024-01-06T13:02:32;21.27;;;8.47;;
83354;SDS011;75108;50.882;5.984;2024-01-06T13:04:58;19.08;;;7.47;;
83354;SDS011;75108;50.882;5.984;2024-01-06T13:07:23;18.40;;;7.27;;
83354;SDS011;75108;50.882;5.984;2024-01-06T13:09:49;23.27;;;8.00;;
83354;SDS011;75108;50.882;5.984;2024-01-06T13:12:15;17.60;;;6.63;;
83354;SDS011;75108;50.882;5.984;2024-01-06T13:14:40;19.63;;;6.90;;
83354;SDS011;75108;50.882;5.984;2024-01-06T13:17:09;18.17;;;7.40;;
83354;SDS011;75108;50.882;5.984;2024-01-06T13:19:35;14.52;;;5.45;;
83354;SDS011;75108;50.882;5.984;2024-01-06T13:22:00;22.97;;;8.07;;
83354;SDS011;75108;50.882;5.984;2024-01-06T13:24:25;21.13;;;7.67;;
83354;SDS011;75108;50.882;5.984;2024-01-06T13:26:51;24.03;;;8.30;;
83354;SDS011;75108;50.882;5.984;2024-01-06T13:29:16;24.13;;;7.77;;
83354;SDS011;75108;50.882;5.984;2024-01-06T13:31:42;25.97;;;9.70;;
83354;SDS011;75108;50.882;5.984;2024-01-06T13:34:09;30.98;;;9.48;;
83354;SDS011;75108;50.882;5.984;2024-01-06T13:36:34;28.47;;;10.83;;
83354;SDS011;75108;50.882;5.984;2024-01-06T13:39:01;31.13;;;10.70;;
83354;SDS011;75108;50.882;5.984;2024-01-06T13:41:29;28.42;;;9.70;;
83354;SDS011;75108;50.882;5.984;2024-01-06T13:43:54;20.97;;;8.43;;
83354;SDS011;75108;50.882;5.984;2024-01-06T13:46:20;23.38;;;9.27;;
83354;SDS011;75108;50.882;5.984;2024-01-06T13:48:45;21.10;;;8.93;;
83354;SDS011;75108;50.882;5.984;2024-01-06T13:51:10;23.27;;;8.90;;
83354;SDS011;75108;50.882;5.984;2024-01-06T13:53:36;23.23;;;9.13;;
83354;SDS011;75108;50.882;5.984;2024-01-06T13:56:01;21.52;;;8.85;;
83354;SDS011;75108;50.882;5.984;2024-01-06T13:58:28;20.85;;;8.40;;
83354;SDS011;75108;50.882;5.984;2024-01-06T14:00:53;26.07;;;9.40;;
83354;SDS011;75108;50.882;5.984;2024-01-06T14:03:18;23.90;;;9.60;;
83354;SDS011;75108;50.882;5.984;2024-01-06T14:05:44;23.70;;;9.23;;
83354;SDS011;75108;50.882;5.984;2024-01-06T14:08:09;21.73;;;8.85;;
83354;SDS011;75108;50.882;5.984;2024-01-06T14:10:35;22.07;;;8.93;;
83354;SDS011;75108;50.882;5.984;2024-01-06T14:13:02;22.10;;;8.98;;
83354;SDS011;75108;50.882;5.984;2024-01-06T14:15:28;19.80;;;9.00;;
83354;SDS011;75108;50.882;5.984;2024-01-06T14:17:55;22.58;;;8.70;;
83354;SDS011;75108;50.882;5.984;2024-01-06T14:20:21;27.30;;;9.30;;
83354;SDS011;75108;50.882;5.984;2024-01-06T14:22:47;20.87;;;8.90;;
83354;SDS011;75108;50.882;5.984;2024-01-06T14:25:14;19.93;;;8.73;;
83354;SDS011;75108;50.882;5.984;2024-01-06T14:27:42;21.20;;;8.55;;
83354;SDS011;75108;50.882;5.984;2024-01-06T14:30:08;18.77;;;7.95;;